sensor_id;sensor_type;location;lat;lon;timestamp;pressure;altitude;pressure_sealevel;temperature;humidity
62849;BME280;48941;49.516;8.286;2022-07-23T00:01:32;100329.75;;;24.45;54.05
62849;BME280;48941;49.516;8.286;2022-07-23T00:04:00;100328.72;;;24.40;53.32
62849;BME280;48941;49.516;8.286;2022-07-23T00:06:28;100328.94;;;24.38;53.27
62849;BME280;48941;49.516;8.286;2022-07-23T00:08:56;100324.56;;;24.37;53.25
62849;BME280;48941;49.516;8.286;2022-07-23T00:11:26;100323.28;;;24.40;53.19
62849;BME280;48941;49.516;8.286;2022-07-23T00:13:53;100319.94;;;24.38;55.63
62849;BME280;48941;49.516;8.286;2022-07-23T00:16:22;100318.91;;;24.32;57.86
62849;BME280;48941;49.516;8.286;2022-07-23T00:18:50;100307.91;;;24.20;59.18
62849;BME280;48941;49.516;8.286;2022-07-23T00:21:18;100293.25;;;24.15;58.40
62849;BME280;48941;49.516;8.286;2022-07-23T00:23:45;100282.63;;;24.07;57.57
62849;BME280;48941;49.516;8.286;2022-07-23T00:26:13;100280.94;;;24.05;58.56
62849;BME280;48941;49.516;8.286;2022-07-23T00:28:43;100274.25;;;24.01;58.49
62849;BME280;48941;49.516;8.286;2022-07-23T00:31:10;100281.38;;;24.02;59.23
62849;BME280;48941;49.516;8.286;2022-07-23T00:33:38;100294.16;;;23.95;59.00
62849;BME280;48941;49.516;8.286;2022-07-23T00:36:07;100300.41;;;23.96;58.95
62849;BME280;48941;49.516;8.286;2022-07-23T00:38:35;100299.78;;;23.94;58.54
62849;BME280;48941;49.516;8.286;2022-07-23T00:41:03;100297.72;;;23.89;58.65
62849;BME280;48941;49.516;8.286;2022-07-23T00:43:31;100295.22;;;23.88;59.32
62849;BME280;48941;49.516;8.286;2022-07-23T00:46:00;100294.38;;;23.87;59.36
62849;BME280;48941;49.516;8.286;2022-07-23T00:48:28;100311.34;;;23.82;59.22
62849;BME280;48941;49.516;8.286;2022-07-23T00:50:56;100322.00;;;23.77;59.44
62849;BME280;48941;49.516;8.286;2022-07-23T00:53:24;100333.25;;;23.74;59.20
62849;BME280;48941;49.516;8.286;2022-07-23T00:55:53;100324.28;;;23.74;59.15
62849;BME280;48941;49.516;8.286;2022-07-23T00:58:21;100324.28;;;23.74;59.43
62849;BME280;48941;49.516;8.286;2022-07-23T01:00:49;100322.59;;;23.66;59.18
62849;BME280;48941;49.516;8.286;2022-07-23T01:03:18;100319.47;;;23.62;58.60
62849;BME280;48941;49.516;8.286;2022-07-23T01:05:46;100327.00;;;23.60;58.77
62849;BME280;48941;49.516;8.286;2022-07-23T01:08:14;100319.91;;;23.59;58.79
62849;BME280;48941;49.516;8.286;2022-07-23T01:10:42;100316.34;;;23.59;58.48
62849;BME280;48941;49.516;8.286;2022-07-23T01:13:10;100312.78;;;23.58;58.27
62849;BME280;48941;49.516;8.286;2022-07-23T01:15:38;100316.56;;;23.57;58.36
62849;BME280;48941;49.516;8.286;2022-07-23T01:18:07;100309.84;;;23.60;58.16
62849;BME280;48941;49.516;8.286;2022-07-23T01:20:36;100292.91;;;23.58;58.17
62849;BME280;48941;49.516;8.286;2022-07-23T01:23:05;100293.75;;;23.58;58.44
62849;BME280;48941;49.516;8.286;2022-07-23T01:25:33;100283.50;;;23.54;58.66
62849;BME280;48941;49.516;8.286;2022-07-23T01:28:01;100282.88;;;23.52;58.79
62849;BME280;48941;49.516;8.286;2022-07-23T01:30:29;100285.81;;;23.50;58.76
62849;BME280;48941;49.516;8.286;2022-07-23T01:32:56;100284.78;;;23.51;58.88
62849;BME280;48941;49.516;8.286;2022-07-23T01:35:24;100289.16;;;23.52;58.97
62849;BME280;48941;49.516;8.286;2022-07-23T01:37:52;100301.50;;;23.48;60.21
62849;BME280;48941;49.516;8.286;2022-07-23T01:40:21;100313.41;;;23.34;61.04
62849;BME280;48941;49.516;8.286;2022-07-23T01:42:50;100308.00;;;23.27;61.00
62849;BME280;48941;49.516;8.286;2022-07-23T01:45:18;100301.31;;;23.23;60.74
62849;BME280;48941;49.516;8.286;2022-07-23T01:47:46;100289.81;;;23.21;60.51
62849;BME280;48941;49.516;8.286;2022-07-23T01:50:14;100297.09;;;23.20;60.23
62849;BME280;48941;49.516;8.286;2022-07-23T01:52:42;100295.44;;;23.19;59.86
62849;BME280;48941;49.516;8.286;2022-07-23T01:55:10;100303.78;;;23.18;59.95
62849;BME280;48941;49.516;8.286;2022-07-23T01:57:46;100299.81;;;23.20;59.81
62849;BME280;48941;49.516;8.286;2022-07-23T02:00:14;100299.19;;;23.18;59.93
62849;BME280;48941;49.516;8.286;2022-07-23T02:02:42;100301.06;;;23.18;60.11
62849;BME280;48941;49.516;8.286;2022-07-23T02:05:09;100293.75;;;23.18;59.80
62849;BME280;48941;49.516;8.286;2022-07-23T02:07:37;100300.66;;;23.14;59.72
62849;BME280;48941;49.516;8.286;2022-07-23T02:10:06;100299.19;;;23.12;59.73
62849;BME280;48941;49.516;8.286;2022-07-23T02:12:34;100293.56;;;23.13;60.11
62849;BME280;48941;49.516;8.286;2022-07-23T02:15:04;100298.38;;;23.11;60.10
62849;BME280;48941;49.516;8.286;2022-07-23T02:17:35;100295.84;;;23.10;60.16
62849;BME280;48941;49.516;8.286;2022-07-23T02:20:04;100297.31;;;23.12;60.50
62849;BME280;48941;49.516;8.286;2022-07-23T02:22:32;100291.03;;;23.12;60.46
62849;BME280;48941;49.516;8.286;2022-07-23T02:25:00;100287.28;;;23.06;60.60
62849;BME280;48941;49.516;8.286;2022-07-23T02:27:27;100276.63;;;23.04;60.84
62849;BME280;48941;49.516;8.286;2022-07-23T02:29:55;100279.13;;;23.06;61.22
62849;BME280;48941;49.516;8.286;2022-07-23T02:32:25;100280.19;;;23.05;61.42
62849;BME280;48941;49.516;8.286;2022-07-23T02:34:53;100266.34;;;23.00;61.70
62849;BME280;48941;49.516;8.286;2022-07-23T02:37:21;100263.44;;;22.95;62.23
62849;BME280;48941;49.516;8.286;2022-07-23T02:39:49;100263.00;;;22.91;61.88
62849;BME280;48941;49.516;8.286;2022-07-23T02:42:16;100264.03;;;22.90;61.96
62849;BME280;48941;49.516;8.286;2022-07-23T02:44:45;100293.28;;;22.88;61.96
62849;BME280;48941;49.516;8.286;2022-07-23T02:47:12;100306.25;;;22.93;61.91
62849;BME280;48941;49.516;8.286;2022-07-23T02:49:41;100297.88;;;22.94;61.82
62849;BME280;48941;49.516;8.286;2022-07-23T02:52:09;100308.53;;;22.96;61.86
62849;BME280;48941;49.516;8.286;2022-07-23T02:54:37;100337.38;;;22.97;61.95
62849;BME280;48941;49.516;8.286;2022-07-23T02:57:05;100342.38;;;23.00;62.20
62849;BME280;48941;49.516;8.286;2022-07-23T02:59:33;100344.47;;;22.98;62.28
62849;BME280;48941;49.516;8.286;2022-07-23T03:02:00;100350.53;;;22.93;62.50
62849;BME280;48941;49.516;8.286;2022-07-23T03:04:28;100356.78;;;22.94;62.69
62849;BME280;48941;49.516;8.286;2022-07-23T03:06:57;100366.19;;;22.91;63.27
62849;BME280;48941;49.516;8.286;2022-07-23T03:09:25;100365.75;;;22.87;62.89
62849;BME280;48941;49.516;8.286;2022-07-23T03:11:53;100359.69;;;22.85;62.74
62849;BME280;48941;49.516;8.286;2022-07-23T03:14:20;100366.16;;;22.84;62.76
62849;BME280;48941;49.516;8.286;2022-07-23T03:16:48;100363.22;;;22.79;63.02
62849;BME280;48941;49.516;8.286;2022-07-23T03:19:16;100361.97;;;22.75;63.34
62849;BME280;48941;49.516;8.286;2022-07-23T03:21:44;100362.78;;;22.69;63.43
62849;BME280;48941;49.516;8.286;2022-07-23T03:24:13;100364.88;;;22.67;63.50
62849;BME280;48941;49.516;8.286;2022-07-23T03:26:41;100373.00;;;22.67;63.62
62849;BME280;48941;49.516;8.286;2022-07-23T03:29:09;100374.47;;;22.63;64.00
62849;BME280;48941;49.516;8.286;2022-07-23T03:31:37;100380.72;;;22.63;63.97
62849;BME280;48941;49.516;8.286;2022-07-23T03:34:05;100384.88;;;22.66;64.40
62849;BME280;48941;49.516;8.286;2022-07-23T03:36:32;100361.28;;;22.66;65.29
62849;BME280;48941;49.516;8.286;2022-07-23T03:39:00;100327.03;;;22.59;67.68
62849;BME280;48941;49.516;8.286;2022-07-23T03:41:30;100331.41;;;22.53;67.28
62849;BME280;48941;49.516;8.286;2022-07-23T03:43:58;100346.63;;;22.54;68.35
62849;BME280;48941;49.516;8.286;2022-07-23T03:46:25;100335.34;;;22.51;68.31
62849;BME280;48941;49.516;8.286;2022-07-23T03:48:53;100351.22;;;22.47;68.38
62849;BME280;48941;49.516;8.286;2022-07-23T03:51:24;100359.56;;;22.45;69.11
62849;BME280;48941;49.516;8.286;2022-07-23T03:53:52;100357.22;;;22.42;71.87
62849;BME280;48941;49.516;8.286;2022-07-23T03:56:21;100344.28;;;22.38;71.02
62849;BME280;48941;49.516;8.286;2022-07-23T03:58:50;100357.41;;;22.34;71.66
62849;BME280;48941;49.516;8.286;2022-07-23T04:01:18;100376.63;;;22.33;71.82
62849;BME280;48941;49.516;8.286;2022-07-23T04:03:46;100377.38;;;22.26;73.43
62849;BME280;48941;49.516;8.286;2022-07-23T04:06:14;100383.38;;;22.22;72.39
62849;BME280;48941;49.516;8.286;2022-07-23T04:08:42;100400.50;;;22.22;72.13
62849;BME280;48941;49.516;8.286;2022-07-23T04:11:09;100425.03;;;22.07;73.14
62849;BME280;48941;49.516;8.286;2022-07-23T04:13:37;100451.31;;;22.07;74.09
62849;BME280;48941;49.516;8.286;2022-07-23T04:16:07;100454.22;;;22.05;73.74
62849;BME280;48941;49.516;8.286;2022-07-23T04:18:35;100461.53;;;22.05;73.76
62849;BME280;48941;49.516;8.286;2022-07-23T04:21:02;100455.88;;;22.06;74.57
62849;BME280;48941;49.516;8.286;2022-07-23T04:23:30;100451.69;;;22.04;73.85
62849;BME280;48941;49.516;8.286;2022-07-23T04:25:58;100454.41;;;22.04;75.01
62849;BME280;48941;49.516;8.286;2022-07-23T04:28:26;100453.75;;;22.02;75.62
62849;BME280;48941;49.516;8.286;2022-07-23T04:30:56;100442.91;;;22.02;74.69
62849;BME280;48941;49.516;8.286;2022-07-23T04:33:25;100416.78;;;21.94;74.94
62849;BME280;48941;49.516;8.286;2022-07-23T04:35:53;100428.59;;;21.86;75.82
62849;BME280;48941;49.516;8.286;2022-07-23T04:38:21;100430.44;;;21.79;76.13
62849;BME280;48941;49.516;8.286;2022-07-23T04:40:48;100450.88;;;21.82;75.19
62849;BME280;48941;49.516;8.286;2022-07-23T04:43:16;100459.66;;;21.84;76.11
62849;BME280;48941;49.516;8.286;2022-07-23T04:45:44;100465.53;;;21.87;76.96
62849;BME280;48941;49.516;8.286;2022-07-23T04:48:12;100486.81;;;21.91;76.50
62849;BME280;48941;49.516;8.286;2022-07-23T04:50:41;100478.69;;;21.91;76.14
62849;BME280;48941;49.516;8.286;2022-07-23T04:53:10;100473.88;;;21.86;77.70
62849;BME280;48941;49.516;8.286;2022-07-23T04:55:37;100477.22;;;21.88;76.60
62849;BME280;48941;49.516;8.286;2022-07-23T04:58:05;100484.53;;;21.87;76.19
62849;BME280;48941;49.516;8.286;2022-07-23T05:00:33;100492.00;;;21.85;76.77
62849;BME280;48941;49.516;8.286;2022-07-23T05:03:01;100488.47;;;21.85;76.19
62849;BME280;48941;49.516;8.286;2022-07-23T05:05:29;100493.44;;;21.81;77.74
62849;BME280;48941;49.516;8.286;2022-07-23T05:07:58;100492.19;;;21.84;78.98
62849;BME280;48941;49.516;8.286;2022-07-23T05:10:26;100484.19;;;21.76;78.59
62849;BME280;48941;49.516;8.286;2022-07-23T05:12:53;100477.09;;;21.75;78.43
62849;BME280;48941;49.516;8.286;2022-07-23T05:15:21;100473.31;;;21.69;78.21
62849;BME280;48941;49.516;8.286;2022-07-23T05:17:49;100486.63;;;21.71;80.33
62849;BME280;48941;49.516;8.286;2022-07-23T05:20:17;100483.94;;;21.71;78.50
62849;BME280;48941;49.516;8.286;2022-07-23T05:22:45;100481.44;;;21.69;79.30
62849;BME280;48941;49.516;8.286;2022-07-23T05:25:14;100474.97;;;21.70;80.21
62849;BME280;48941;49.516;8.286;2022-07-23T05:27:41;100475.16;;;21.68;79.25
62849;BME280;48941;49.516;8.286;2022-07-23T05:30:10;100460.97;;;21.66;80.58
62849;BME280;48941;49.516;8.286;2022-07-23T05:32:39;100459.88;;;21.61;79.70
62849;BME280;48941;49.516;8.286;2022-07-23T05:35:07;100466.13;;;21.61;80.53
62849;BME280;48941;49.516;8.286;2022-07-23T05:37:36;100469.88;;;21.60;81.52
62849;BME280;48941;49.516;8.286;2022-07-23T05:40:05;100466.13;;;21.61;79.90
62849;BME280;48941;49.516;8.286;2022-07-23T05:42:35;100466.50;;;21.58;79.83
62849;BME280;48941;49.516;8.286;2022-07-23T05:45:04;100468.03;;;21.61;79.66
62849;BME280;48941;49.516;8.286;2022-07-23T05:47:39;100481.16;;;21.64;80.36
62849;BME280;48941;49.516;8.286;2022-07-23T05:50:08;100481.63;;;21.67;79.85
62849;BME280;48941;49.516;8.286;2022-07-23T05:52:35;100473.69;;;21.66;79.20
62849;BME280;48941;49.516;8.286;2022-07-23T05:55:04;100473.03;;;21.64;79.84
62849;BME280;48941;49.516;8.286;2022-07-23T05:57:32;100475.56;;;21.65;79.59
62849;BME280;48941;49.516;8.286;2022-07-23T06:00:02;100476.19;;;21.67;78.89
62849;BME280;48941;49.516;8.286;2022-07-23T06:02:30;100483.75;;;21.72;78.88
62849;BME280;48941;49.516;8.286;2022-07-23T06:04:58;100496.53;;;21.78;78.61
62849;BME280;48941;49.516;8.286;2022-07-23T06:07:25;100489.13;;;21.87;80.26
62849;BME280;48941;49.516;8.286;2022-07-23T06:09:53;100486.19;;;21.88;78.50
62849;BME280;48941;49.516;8.286;2022-07-23T06:12:21;100482.50;;;21.96;79.41
62849;BME280;48941;49.516;8.286;2022-07-23T06:14:49;100483.16;;;21.98;78.44
62849;BME280;48941;49.516;8.286;2022-07-23T06:17:19;100492.56;;;22.02;78.60
62849;BME280;48941;49.516;8.286;2022-07-23T06:19:47;100501.97;;;22.06;77.51
62849;BME280;48941;49.516;8.286;2022-07-23T06:22:18;100515.22;;;22.16;76.41
62849;BME280;48941;49.516;8.286;2022-07-23T06:24:45;100521.38;;;22.25;75.96
62849;BME280;48941;49.516;8.286;2022-07-23T06:27:13;100522.66;;;22.29;74.98
62849;BME280;48941;49.516;8.286;2022-07-23T06:29:41;100533.13;;;22.32;75.67
62849;BME280;48941;49.516;8.286;2022-07-23T06:32:09;100540.88;;;22.35;74.08
62849;BME280;48941;49.516;8.286;2022-07-23T06:34:39;100545.88;;;22.38;73.57
62849;BME280;48941;49.516;8.286;2022-07-23T06:37:13;100543.63;;;22.42;73.99
62849;BME280;48941;49.516;8.286;2022-07-23T06:39:42;100546.59;;;22.47;73.76
62849;BME280;48941;49.516;8.286;2022-07-23T06:42:10;100551.81;;;22.48;72.61
62849;BME280;48941;49.516;8.286;2022-07-23T06:44:38;100543.03;;;22.46;73.10
62849;BME280;48941;49.516;8.286;2022-07-23T06:47:06;100536.97;;;22.44;72.24
62849;BME280;48941;49.516;8.286;2022-07-23T06:49:34;100530.50;;;22.45;73.39
62849;BME280;48941;49.516;8.286;2022-07-23T06:52:03;100534.50;;;22.50;73.52
62849;BME280;48941;49.516;8.286;2022-07-23T06:54:31;100535.53;;;22.48;71.83
62849;BME280;48941;49.516;8.286;2022-07-23T06:56:59;100520.94;;;22.50;73.67
62849;BME280;48941;49.516;8.286;2022-07-23T06:59:27;100516.75;;;22.47;71.89
62849;BME280;48941;49.516;8.286;2022-07-23T07:01:55;100526.38;;;22.50;73.44
62849;BME280;48941;49.516;8.286;2022-07-23T07:04:24;100522.66;;;22.57;74.00
62849;BME280;48941;49.516;8.286;2022-07-23T07:06:51;100545.00;;;22.59;73.24
62849;BME280;48941;49.516;8.286;2022-07-23T07:09:20;100550.03;;;22.62;72.23
62849;BME280;48941;49.516;8.286;2022-07-23T07:11:48;100546.94;;;22.65;71.93
62849;BME280;48941;49.516;8.286;2022-07-23T07:14:16;100531.94;;;22.70;71.35
62849;BME280;48941;49.516;8.286;2022-07-23T07:16:44;100535.72;;;22.75;71.92
62849;BME280;48941;49.516;8.286;2022-07-23T07:19:12;100528.22;;;22.77;70.60
62849;BME280;48941;49.516;8.286;2022-07-23T07:21:39;100531.13;;;22.76;70.32
62849;BME280;48941;49.516;8.286;2022-07-23T07:24:07;100546.16;;;22.78;71.12
62849;BME280;48941;49.516;8.286;2022-07-23T07:26:36;100546.63;;;22.82;70.70
62849;BME280;48941;49.516;8.286;2022-07-23T07:29:05;100558.31;;;22.82;70.56
62849;BME280;48941;49.516;8.286;2022-07-23T07:31:33;100561.63;;;22.78;70.64
62849;BME280;48941;49.516;8.286;2022-07-23T07:34:01;100568.16;;;22.83;70.69
62849;BME280;48941;49.516;8.286;2022-07-23T07:36:29;100565.69;;;22.89;70.22
62849;BME280;48941;49.516;8.286;2022-07-23T07:38:56;100571.53;;;22.92;70.30
62849;BME280;48941;49.516;8.286;2022-07-23T07:41:25;100565.91;;;22.94;69.60
62849;BME280;48941;49.516;8.286;2022-07-23T07:43:54;100577.03;;;22.99;69.96
62849;BME280;48941;49.516;8.286;2022-07-23T07:46:22;100581.88;;;23.03;69.04
62849;BME280;48941;49.516;8.286;2022-07-23T07:48:50;100593.00;;;23.09;69.55
62849;BME280;48941;49.516;8.286;2022-07-23T07:51:23;100591.34;;;23.14;68.11
62849;BME280;48941;49.516;8.286;2022-07-23T07:53:51;100598.03;;;23.18;68.06
62849;BME280;48941;49.516;8.286;2022-07-23T07:56:20;100592.28;;;23.35;67.94
62849;BME280;48941;49.516;8.286;2022-07-23T07:58:48;100597.09;;;23.39;67.00
62849;BME280;48941;49.516;8.286;2022-07-23T08:01:18;100590.03;;;23.52;67.03
62849;BME280;48941;49.516;8.286;2022-07-23T08:03:46;100587.59;;;23.70;67.00
62849;BME280;48941;49.516;8.286;2022-07-23T08:06:14;100591.44;;;23.82;66.70
62849;BME280;48941;49.516;8.286;2022-07-23T08:08:42;100590.81;;;23.87;65.75
62849;BME280;48941;49.516;8.286;2022-07-23T08:11:10;100581.22;;;23.98;66.00
62849;BME280;48941;49.516;8.286;2022-07-23T08:13:38;100589.41;;;24.11;64.71
62849;BME280;48941;49.516;8.286;2022-07-23T08:16:06;100588.56;;;24.11;64.13
62849;BME280;48941;49.516;8.286;2022-07-23T08:18:35;100591.09;;;24.19;62.75
62849;BME280;48941;49.516;8.286;2022-07-23T08:21:03;100596.53;;;24.32;63.08
62849;BME280;48941;49.516;8.286;2022-07-23T08:23:32;100590.25;;;24.45;61.95
62849;BME280;48941;49.516;8.286;2022-07-23T08:26:01;100590.31;;;24.58;61.85
62849;BME280;48941;49.516;8.286;2022-07-23T08:28:29;100591.53;;;24.76;61.40
62849;BME280;48941;49.516;8.286;2022-07-23T08:30:59;100588.56;;;24.84;60.54
62849;BME280;48941;49.516;8.286;2022-07-23T08:33:27;100594.84;;;24.98;60.46
62849;BME280;48941;49.516;8.286;2022-07-23T08:36:02;100598.13;;;25.20;58.73
62849;BME280;48941;49.516;8.286;2022-07-23T08:38:31;100598.09;;;25.40;58.46
62849;BME280;48941;49.516;8.286;2022-07-23T08:40:59;100599.50;;;25.56;57.22
62849;BME280;48941;49.516;8.286;2022-07-23T08:43:29;100606.97;;;25.74;56.38
62849;BME280;48941;49.516;8.286;2022-07-23T08:45:59;100605.00;;;25.88;56.92
62849;BME280;48941;49.516;8.286;2022-07-23T08:48:29;100597.19;;;25.98;56.04
62849;BME280;48941;49.516;8.286;2022-07-23T08:50:59;100592.75;;;26.03;55.70
62849;BME280;48941;49.516;8.286;2022-07-23T08:53:29;100605.13;;;26.06;55.07
62849;BME280;48941;49.516;8.286;2022-07-23T08:56:00;100596.56;;;26.02;56.03
62849;BME280;48941;49.516;8.286;2022-07-23T08:58:29;100603.19;;;26.13;55.79
62849;BME280;48941;49.516;8.286;2022-07-23T09:00:57;100605.78;;;26.33;55.01
62849;BME280;48941;49.516;8.286;2022-07-23T09:03:28;100607.06;;;26.56;54.87
62849;BME280;48941;49.516;8.286;2022-07-23T09:05:59;100606.28;;;26.74;53.70
62849;BME280;48941;49.516;8.286;2022-07-23T09:08:36;100607.25;;;26.86;53.57
62849;BME280;48941;49.516;8.286;2022-07-23T09:11:05;100604.16;;;27.01;53.17
62849;BME280;48941;49.516;8.286;2022-07-23T09:13:37;100596.34;;;27.05;53.47
62849;BME280;48941;49.516;8.286;2022-07-23T09:16:09;100598.47;;;27.21;52.54
62849;BME280;48941;49.516;8.286;2022-07-23T09:18:42;100598.47;;;27.21;52.53
62849;BME280;48941;49.516;8.286;2022-07-23T09:21:16;100595.31;;;27.24;52.46
62849;BME280;48941;49.516;8.286;2022-07-23T09:23:48;100596.94;;;27.44;52.17
62849;BME280;48941;49.516;8.286;2022-07-23T09:26:18;100597.63;;;27.57;51.57
62849;BME280;48941;49.516;8.286;2022-07-23T09:28:51;100593.03;;;27.70;51.08
62849;BME280;48941;49.516;8.286;2022-07-23T09:31:21;100588.41;;;27.70;50.87
62849;BME280;48941;49.516;8.286;2022-07-23T09:33:49;100586.13;;;27.67;50.71
62849;BME280;48941;49.516;8.286;2022-07-23T09:36:27;100589.06;;;27.84;50.17
62849;BME280;48941;49.516;8.286;2022-07-23T09:38:56;100589.81;;;27.91;49.79
62849;BME280;48941;49.516;8.286;2022-07-23T09:41:24;100592.22;;;27.99;50.18
62849;BME280;48941;49.516;8.286;2022-07-23T09:43:55;100587.28;;;28.08;49.07
62849;BME280;48941;49.516;8.286;2022-07-23T09:46:24;100585.16;;;28.22;48.61
62849;BME280;48941;49.516;8.286;2022-07-23T09:48:53;100585.78;;;28.36;48.44
62849;BME280;48941;49.516;8.286;2022-07-23T09:51:24;100579.84;;;28.51;47.99
62849;BME280;48941;49.516;8.286;2022-07-23T09:53:57;100584.63;;;28.79;47.38
62849;BME280;48941;49.516;8.286;2022-07-23T09:56:27;100587.94;;;28.93;47.44
62849;BME280;48941;49.516;8.286;2022-07-23T09:59:01;100589.34;;;29.07;47.35
62849;BME280;48941;49.516;8.286;2022-07-23T10:01:33;100589.38;;;29.19;45.56
62849;BME280;48941;49.516;8.286;2022-07-23T10:04:02;100583.66;;;29.21;46.21
62849;BME280;48941;49.516;8.286;2022-07-23T10:06:31;100593.78;;;29.32;45.96
62849;BME280;48941;49.516;8.286;2022-07-23T10:09:01;100596.66;;;29.13;46.18
62849;BME280;48941;49.516;8.286;2022-07-23T10:11:30;100593.53;;;29.22;46.27
62849;BME280;48941;49.516;8.286;2022-07-23T10:13:59;100597.41;;;29.49;44.81
62849;BME280;48941;49.516;8.286;2022-07-23T10:16:29;100587.91;;;29.69;44.59
62849;BME280;48941;49.516;8.286;2022-07-23T10:18:59;100589.47;;;29.76;44.34
62849;BME280;48941;49.516;8.286;2022-07-23T10:21:45;100584.00;;;29.93;43.37
62849;BME280;48941;49.516;8.286;2022-07-23T10:24:28;100577.78;;;30.15;43.41
62849;BME280;48941;49.516;8.286;2022-07-23T10:27:05;100582.91;;;30.40;43.71
62849;BME280;48941;49.516;8.286;2022-07-23T10:29:45;100586.16;;;30.54;42.75
62849;BME280;48941;49.516;8.286;2022-07-23T10:32:26;100574.91;;;30.55;41.83
62849;BME280;48941;49.516;8.286;2022-07-23T10:35:06;100582.63;;;30.25;42.58
62849;BME280;48941;49.516;8.286;2022-07-23T10:37:38;100585.38;;;30.25;42.40
62849;BME280;48941;49.516;8.286;2022-07-23T10:40:13;100581.28;;;30.10;43.09
62849;BME280;48941;49.516;8.286;2022-07-23T10:42:44;100583.75;;;29.95;43.11
62849;BME280;48941;49.516;8.286;2022-07-23T10:45:31;100580.84;;;29.85;42.90
62849;BME280;48941;49.516;8.286;2022-07-23T10:48:14;100571.78;;;30.01;42.68
62849;BME280;48941;49.516;8.286;2022-07-23T10:51:05;100567.97;;;30.19;42.19
62849;BME280;48941;49.516;8.286;2022-07-23T10:53:58;100567.50;;;30.39;41.79
62849;BME280;48941;49.516;8.286;2022-07-23T10:56:51;100571.91;;;30.57;41.77
62849;BME280;48941;49.516;8.286;2022-07-23T10:59:31;100570.78;;;30.75;40.68
62849;BME280;48941;49.516;8.286;2022-07-23T11:02:20;100569.84;;;31.03;40.10
62849;BME280;48941;49.516;8.286;2022-07-23T11:04:49;100560.78;;;31.25;39.93
62849;BME280;48941;49.516;8.286;2022-07-23T11:07:18;100558.91;;;31.30;40.33
62849;BME280;48941;49.516;8.286;2022-07-23T11:09:48;100565.09;;;31.43;40.25
62849;BME280;48941;49.516;8.286;2022-07-23T11:12:34;100564.53;;;31.41;39.16
62849;BME280;48941;49.516;8.286;2022-07-23T11:15:05;100571.22;;;31.45;39.63
62849;BME280;48941;49.516;8.286;2022-07-23T11:17:34;100567.03;;;31.42;39.45
62849;BME280;48941;49.516;8.286;2022-07-23T11:20:15;100565.56;;;31.12;39.88
62849;BME280;48941;49.516;8.286;2022-07-23T11:22:51;100570.69;;;30.87;39.83
62849;BME280;48941;49.516;8.286;2022-07-23T11:25:33;100556.63;;;30.83;40.69
62849;BME280;48941;49.516;8.286;2022-07-23T11:28:14;100553.72;;;30.90;40.21
62849;BME280;48941;49.516;8.286;2022-07-23T11:30:43;100557.09;;;30.97;40.32
62849;BME280;48941;49.516;8.286;2022-07-23T11:33:19;100561.66;;;31.08;40.03
62849;BME280;48941;49.516;8.286;2022-07-23T11:35:51;100554.69;;;31.01;39.30
62849;BME280;48941;49.516;8.286;2022-07-23T11:38:30;100552.28;;;30.87;40.28
62849;BME280;48941;49.516;8.286;2022-07-23T11:40:58;100552.81;;;30.67;40.32
62849;BME280;48941;49.516;8.286;2022-07-23T11:43:27;100550.34;;;30.49;41.36
62849;BME280;48941;49.516;8.286;2022-07-23T11:45:57;100554.78;;;30.33;41.49
62849;BME280;48941;49.516;8.286;2022-07-23T11:48:28;100546.41;;;30.11;41.16
62849;BME280;48941;49.516;8.286;2022-07-23T11:50:57;100540.06;;;29.93;44.64
62849;BME280;48941;49.516;8.286;2022-07-23T11:53:26;100544.72;;;29.76;45.71
62849;BME280;48941;49.516;8.286;2022-07-23T11:55:57;100547.63;;;29.57;46.07
62849;BME280;48941;49.516;8.286;2022-07-23T11:58:31;100556.41;;;29.43;46.58
62849;BME280;48941;49.516;8.286;2022-07-23T12:00:59;100553.84;;;29.24;45.51
62849;BME280;48941;49.516;8.286;2022-07-23T12:03:27;100560.19;;;29.13;45.40
62849;BME280;48941;49.516;8.286;2022-07-23T12:05:57;100553.63;;;29.02;47.08
62849;BME280;48941;49.516;8.286;2022-07-23T12:08:25;100548.63;;;28.87;50.53
62849;BME280;48941;49.516;8.286;2022-07-23T12:10:53;100543.38;;;28.86;50.05
62849;BME280;48941;49.516;8.286;2022-07-23T12:13:21;100548.41;;;28.77;47.05
62849;BME280;48941;49.516;8.286;2022-07-23T12:15:52;100550.19;;;28.83;45.92
62849;BME280;48941;49.516;8.286;2022-07-23T12:18:21;100546.69;;;28.99;45.67
62849;BME280;48941;49.516;8.286;2022-07-23T12:20:52;100554.41;;;29.38;45.03
62849;BME280;48941;49.516;8.286;2022-07-23T12:23:22;100539.97;;;29.59;44.46
62849;BME280;48941;49.516;8.286;2022-07-23T12:25:52;100541.38;;;29.74;42.96
62849;BME280;48941;49.516;8.286;2022-07-23T12:28:21;100538.50;;;29.97;44.49
62849;BME280;48941;49.516;8.286;2022-07-23T12:30:51;100540.66;;;30.29;43.57
62849;BME280;48941;49.516;8.286;2022-07-23T12:33:25;100536.66;;;30.71;42.82
62849;BME280;48941;49.516;8.286;2022-07-23T12:35:55;100530.06;;;30.89;42.06
62849;BME280;48941;49.516;8.286;2022-07-23T12:38:26;100531.75;;;31.12;41.06
62849;BME280;48941;49.516;8.286;2022-07-23T12:40:55;100532.44;;;31.24;39.43
62849;BME280;48941;49.516;8.286;2022-07-23T12:43:24;100530.91;;;31.33;38.82
62849;BME280;48941;49.516;8.286;2022-07-23T12:45:56;100532.75;;;31.28;38.30
62849;BME280;48941;49.516;8.286;2022-07-23T12:48:24;100527.53;;;31.31;38.25
62849;BME280;48941;49.516;8.286;2022-07-23T12:50:57;100528.06;;;31.28;38.66
62849;BME280;48941;49.516;8.286;2022-07-23T12:53:28;100527.41;;;31.43;38.45
62849;BME280;48941;49.516;8.286;2022-07-23T12:56:05;100527.88;;;31.57;38.52
62849;BME280;48941;49.516;8.286;2022-07-23T12:58:45;100534.91;;;31.70;37.55
62849;BME280;48941;49.516;8.286;2022-07-23T13:01:28;100536.22;;;31.67;38.19
62849;BME280;48941;49.516;8.286;2022-07-23T13:04:00;100532.28;;;31.58;37.42